Tropical Cyclones
[Index]
Main Index Home Page Stock Weather Photos Extreme Storms Discussion Storm News and Storm Chasing Reports Tropical Cyclones / Hurricanes / Typhoons Weather Data and Links Wild Fires / Bushfires Weather Observation Techniques Weather Picture Catalogue Tornado Pictures and Reports Stock Video Footage and DVDs for sale
Season 2008-2009 Tropical Cyclone ERIC Track Map
Season 2008-2009 Summaries: [BoM-AU] [JTWC-AU] [JTWC-SIO] [JTWC-SPAC] [JTWC-SH]
<<- Previous TC | JTWC 2008-2009 Season | Next TC ->>

click for intensity scale information  Lat/long Grid: Show Hide

 Date Labels: Show Hide

Joint Typhoon Warning Centre Cyclone Data

Name: ERIC

16 Jan 2009 12:00 UTC to 22 Jan 2009 00:00 UTC

    date/time    lat    long     hPa   cat  kts
2009-01-16 12   14.9    58.4    1010         15          
2009-01-16 18   15.0    57.6    1010         15          
2009-01-17 00   15.1    56.8    1010         15          
2009-01-17 06   15.2    55.9    1007         20          
2009-01-17 12   15.4    54.9    1004         25          
2009-01-17 18   15.6    53.8    1000         30          
2009-01-18 00   15.8    52.9    1000         30          
2009-01-18 06   16.1    52.1    1000         30          
2009-01-18 12   16.4    51.3     996         35          
2009-01-18 18   16.8    50.6     996         35          
2009-01-19 00   17.3    50.0     993    1    40          
2009-01-19 06   17.9    49.5     993    1    40          
2009-01-19 12   19.0    49.3     996         35          
2009-01-19 18   20.1    49.2     996         35          
2009-01-20 00   21.2    49.4     996         35          
2009-01-20 06   22.7    49.2     996         35          
2009-01-20 12   24.2    49.3     996         35          
2009-01-20 18   24.9    49.3     993    1    40          
2009-01-21 00   25.6    49.5     993    1    40          
2009-01-21 06   27.3    50.2     993    1    40          
2009-01-21 12   29.3    52.2     993    1    40          
2009-01-21 18   31.2    55.0     996         35          
2009-01-22 00   33.6    58.8     993    1    40          
Winds are 1-min average.

Tropical cyclone tracks developed by Michael Bath using data from the Joint Typhoon Warning Centre Best Tracks and Google Maps.


[Australian Severe Weather index] [Copyright Notice] [Email Contacts] [Search This Site] [Privacy Policy]
Document: tropical_cyclone_eric.htm Updated: 28 June 2017